sensor_id;sensor_type;location;lat;lon;timestamp;pressure;altitude;pressure_sealevel;temperature;humidity
78299;BME280;67556;55.656;12.590;2023-02-15T00:01:30;103141.34;;;4.60;67.37
78299;BME280;67556;55.656;12.590;2023-02-15T00:03:57;103147.69;;;4.62;67.57
78299;BME280;67556;55.656;12.590;2023-02-15T00:06:23;103141.00;;;4.65;67.25
78299;BME280;67556;55.656;12.590;2023-02-15T00:08:52;103136.03;;;4.68;67.50
78299;BME280;67556;55.656;12.590;2023-02-15T00:11:19;103133.38;;;4.68;67.37
78299;BME280;67556;55.656;12.590;2023-02-15T00:14:06;103138.78;;;4.70;67.24
78299;BME280;67556;55.656;12.590;2023-02-15T00:16:33;103129.16;;;4.70;67.39
78299;BME280;67556;55.656;12.590;2023-02-15T00:19:00;103131.81;;;4.70;67.40
78299;BME280;67556;55.656;12.590;2023-02-15T00:21:27;103132.91;;;4.72;67.56
78299;BME280;67556;55.656;12.590;2023-02-15T00:23:56;103128.53;;;4.73;67.78
78299;BME280;67556;55.656;12.590;2023-02-15T00:26:23;103137.25;;;4.72;67.88
78299;BME280;67556;55.656;12.590;2023-02-15T00:28:50;103137.09;;;4.70;68.13
78299;BME280;67556;55.656;12.590;2023-02-15T00:31:17;103130.69;;;4.77;67.87
78299;BME280;67556;55.656;12.590;2023-02-15T00:33:44;103122.91;;;4.79;67.75
78299;BME280;67556;55.656;12.590;2023-02-15T00:36:11;103124.00;;;4.81;67.94
78299;BME280;67556;55.656;12.590;2023-02-15T00:38:39;103133.91;;;4.83;67.94
78299;BME280;67556;55.656;12.590;2023-02-15T00:41:08;103128.69;;;4.74;68.50
78299;BME280;67556;55.656;12.590;2023-02-15T00:43:36;103121.06;;;4.78;68.31
78299;BME280;67556;55.656;12.590;2023-02-15T00:46:04;103122.91;;;4.79;68.62
78299;BME280;67556;55.656;12.590;2023-02-15T00:48:32;103121.38;;;4.81;68.39
78299;BME280;67556;55.656;12.590;2023-02-15T00:50:59;103115.44;;;4.83;68.43
78299;BME280;67556;55.656;12.590;2023-02-15T00:53:26;103116.09;;;4.81;68.66
78299;BME280;67556;55.656;12.590;2023-02-15T00:55:53;103113.88;;;4.85;68.59
78299;BME280;67556;55.656;12.590;2023-02-15T00:58:22;103116.94;;;4.90;68.56
78299;BME280;67556;55.656;12.590;2023-02-15T01:00:50;103104.00;;;4.93;68.44
78299;BME280;67556;55.656;12.590;2023-02-15T01:03:18;103103.25;;;4.94;68.72
78299;BME280;67556;55.656;12.590;2023-02-15T01:05:47;103100.81;;;4.87;68.96
78299;BME280;67556;55.656;12.590;2023-02-15T01:08:14;103099.75;;;4.85;69.04
78299;BME280;67556;55.656;12.590;2023-02-15T01:10:41;103093.97;;;4.89;69.27
78299;BME280;67556;55.656;12.590;2023-02-15T01:13:09;103091.34;;;4.89;69.29
78299;BME280;67556;55.656;12.590;2023-02-15T01:15:37;103094.59;;;4.86;69.35
78299;BME280;67556;55.656;12.590;2023-02-15T01:18:03;103082.25;;;4.95;69.20
78299;BME280;67556;55.656;12.590;2023-02-15T01:20:34;103087.97;;;5.00;68.94
78299;BME280;67556;55.656;12.590;2023-02-15T01:23:02;103083.00;;;5.03;68.92
78299;BME280;67556;55.656;12.590;2023-02-15T01:25:29;103086.44;;;5.02;68.77
78299;BME280;67556;55.656;12.590;2023-02-15T01:27:55;103081.16;;;5.02;69.05
78299;BME280;67556;55.656;12.590;2023-02-15T01:30:22;103077.41;;;5.00;69.38
78299;BME280;67556;55.656;12.590;2023-02-15T01:32:50;103075.56;;;4.99;69.22
78299;BME280;67556;55.656;12.590;2023-02-15T01:35:17;103076.19;;;4.96;69.55
78299;BME280;67556;55.656;12.590;2023-02-15T01:37:43;103066.56;;;4.97;69.36
78299;BME280;67556;55.656;12.590;2023-02-15T01:40:14;103074.78;;;5.00;69.70
78299;BME280;67556;55.656;12.590;2023-02-15T01:42:41;103060.94;;;5.03;69.63
78299;BME280;67556;55.656;12.590;2023-02-15T01:45:18;103068.19;;;5.05;69.62
78299;BME280;67556;55.656;12.590;2023-02-15T01:47:53;103061.88;;;5.03;69.74
78299;BME280;67556;55.656;12.590;2023-02-15T01:50:23;103061.44;;;4.98;70.15
78299;BME280;67556;55.656;12.590;2023-02-15T01:52:54;103060.22;;;4.95;70.66
78299;BME280;67556;55.656;12.590;2023-02-15T01:55:25;103054.44;;;4.99;70.43
78299;BME280;67556;55.656;12.590;2023-02-15T01:57:53;103045.28;;;4.95;70.55
78299;BME280;67556;55.656;12.590;2023-02-15T02:00:20;103054.72;;;5.02;70.55
78299;BME280;67556;55.656;12.590;2023-02-15T02:02:51;103037.59;;;5.07;70.45
78299;BME280;67556;55.656;12.590;2023-02-15T02:05:19;103040.38;;;5.09;70.58
78299;BME280;67556;55.656;12.590;2023-02-15T02:07:47;103039.75;;;5.11;70.29
78299;BME280;67556;55.656;12.590;2023-02-15T02:10:19;103021.75;;;5.07;70.60
78299;BME280;67556;55.656;12.590;2023-02-15T02:12:49;103029.47;;;5.14;70.97
78299;BME280;67556;55.656;12.590;2023-02-15T02:15:17;103028.00;;;5.18;70.45
78299;BME280;67556;55.656;12.590;2023-02-15T02:17:57;103021.53;;;5.14;70.68
78299;BME280;67556;55.656;12.590;2023-02-15T02:23:29;103016.75;;;5.10;71.20
78299;BME280;67556;55.656;12.590;2023-02-15T02:26:28;103013.03;;;5.08;71.59
78299;BME280;67556;55.656;12.590;2023-02-15T02:29:30;103006.81;;;5.08;72.00
78299;BME280;67556;55.656;12.590;2023-02-15T02:32:14;103002.19;;;5.05;72.36
78299;BME280;67556;55.656;12.590;2023-02-15T02:34:51;102994.13;;;5.04;72.85
78299;BME280;67556;55.656;12.590;2023-02-15T02:37:26;103000.03;;;5.01;72.90
78299;BME280;67556;55.656;12.590;2023-02-15T02:39:58;102985.78;;;4.99;73.51
78299;BME280;67556;55.656;12.590;2023-02-15T02:42:34;102985.66;;;4.97;73.67
78299;BME280;67556;55.656;12.590;2023-02-15T02:45:05;102989.97;;;4.97;73.88
78299;BME280;67556;55.656;12.590;2023-02-15T02:47:38;102990.44;;;5.02;73.69
78299;BME280;67556;55.656;12.590;2023-02-15T02:50:09;102985.28;;;5.03;73.31
78299;BME280;67556;55.656;12.590;2023-02-15T02:52:40;102971.28;;;5.04;73.64
78299;BME280;67556;55.656;12.590;2023-02-15T02:55:11;102967.59;;;5.02;74.11
78299;BME280;67556;55.656;12.590;2023-02-15T02:57:45;102970.97;;;5.01;74.02
78299;BME280;67556;55.656;12.590;2023-02-15T03:00:15;102970.97;;;5.01;74.28
78299;BME280;67556;55.656;12.590;2023-02-15T03:02:44;102970.78;;;5.08;73.79
78299;BME280;67556;55.656;12.590;2023-02-15T03:05:20;102965.69;;;5.01;74.13
78299;BME280;67556;55.656;12.590;2023-02-15T03:07:49;102948.22;;;4.93;74.55
78299;BME280;67556;55.656;12.590;2023-02-15T03:10:18;102957.88;;;4.73;75.70
78299;BME280;67556;55.656;12.590;2023-02-15T03:12:48;102951.59;;;4.82;75.42
78299;BME280;67556;55.656;12.590;2023-02-15T03:15:25;102942.41;;;4.87;75.48
78299;BME280;67556;55.656;12.590;2023-02-15T03:18:13;102934.56;;;4.78;75.83
78299;BME280;67556;55.656;12.590;2023-02-15T03:20:44;102934.63;;;4.69;75.94
78299;BME280;67556;55.656;12.590;2023-02-15T03:23:14;102931.13;;;4.79;75.74
78299;BME280;67556;55.656;12.590;2023-02-15T03:25:47;102928.50;;;4.60;76.18
78299;BME280;67556;55.656;12.590;2023-02-15T03:28:19;102926.00;;;4.81;75.72
78299;BME280;67556;55.656;12.590;2023-02-15T03:30:49;102929.47;;;4.90;75.56
78299;BME280;67556;55.656;12.590;2023-02-15T03:33:20;102928.81;;;4.92;75.16
78299;BME280;67556;55.656;12.590;2023-02-15T03:35:55;102917.84;;;4.88;75.12
78299;BME280;67556;55.656;12.590;2023-02-15T03:38:28;102918.03;;;4.99;75.10
78299;BME280;67556;55.656;12.590;2023-02-15T03:40:58;102922.69;;;5.02;75.28
78299;BME280;67556;55.656;12.590;2023-02-15T03:43:45;102910.50;;;4.94;75.42
78299;BME280;67556;55.656;12.590;2023-02-15T03:46:18;102910.72;;;4.87;75.47
78299;BME280;67556;55.656;12.590;2023-02-15T03:48:50;102908.88;;;4.86;75.73
78299;BME280;67556;55.656;12.590;2023-02-15T03:51:23;102913.78;;;4.91;75.31
78299;BME280;67556;55.656;12.590;2023-02-15T03:54:05;102911.41;;;4.94;75.33
78299;BME280;67556;55.656;12.590;2023-02-15T03:56:33;102905.97;;;4.93;75.29
78299;BME280;67556;55.656;12.590;2023-02-15T03:59:02;102916.03;;;4.97;75.34
78299;BME280;67556;55.656;12.590;2023-02-15T04:01:54;102914.69;;;4.92;75.55
78299;BME280;67556;55.656;12.590;2023-02-15T04:04:36;102897.22;;;4.84;75.79
78299;BME280;67556;55.656;12.590;2023-02-15T04:07:08;102917.84;;;4.88;75.95
78299;BME280;67556;55.656;12.590;2023-02-15T04:09:35;102909.69;;;4.95;75.71
78299;BME280;67556;55.656;12.590;2023-02-15T04:12:20;102900.97;;;4.96;75.78
78299;BME280;67556;55.656;12.590;2023-02-15T04:14:47;102899.13;;;4.95;75.80
78299;BME280;67556;55.656;12.590;2023-02-15T04:17:32;102901.38;;;4.90;75.97
78299;BME280;67556;55.656;12.590;2023-02-15T04:19:58;102883.00;;;4.92;76.03
78299;BME280;67556;55.656;12.590;2023-02-15T04:22:44;102893.06;;;4.96;75.85
78299;BME280;67556;55.656;12.590;2023-02-15T04:25:28;102886.84;;;4.95;76.00
78299;BME280;67556;55.656;12.590;2023-02-15T04:27:55;102875.34;;;4.85;76.41
78299;BME280;67556;55.656;12.590;2023-02-15T04:30:24;102878.69;;;4.73;77.00
78299;BME280;67556;55.656;12.590;2023-02-15T04:32:51;102875.47;;;4.67;77.32
78299;BME280;67556;55.656;12.590;2023-02-15T04:35:18;102875.75;;;4.70;77.40
78299;BME280;67556;55.656;12.590;2023-02-15T04:37:45;102882.13;;;4.72;77.46
78299;BME280;67556;55.656;12.590;2023-02-15T04:40:14;102871.78;;;4.65;77.86
78299;BME280;67556;55.656;12.590;2023-02-15T04:42:41;102865.59;;;4.65;77.77
78299;BME280;67556;55.656;12.590;2023-02-15T04:45:08;102858.59;;;4.65;77.51
78299;BME280;67556;55.656;12.590;2023-02-15T04:47:35;102862.28;;;4.67;78.03
78299;BME280;67556;55.656;12.590;2023-02-15T04:50:02;102859.38;;;4.64;77.97
78299;BME280;67556;55.656;12.590;2023-02-15T04:52:29;102858.28;;;4.62;78.21
78299;BME280;67556;55.656;12.590;2023-02-15T04:54:59;102859.22;;;4.63;78.43
78299;BME280;67556;55.656;12.590;2023-02-15T04:57:27;102856.31;;;4.60;78.23
78299;BME280;67556;55.656;12.590;2023-02-15T04:59:53;102849.25;;;4.50;78.67
78299;BME280;67556;55.656;12.590;2023-02-15T05:02:22;102857.25;;;4.60;78.58
78299;BME280;67556;55.656;12.590;2023-02-15T05:04:49;102854.72;;;4.62;78.67
78299;BME280;67556;55.656;12.590;2023-02-15T05:07:16;102846.91;;;4.53;78.49
78299;BME280;67556;55.656;12.590;2023-02-15T05:09:43;102853.72;;;4.70;78.32
78299;BME280;67556;55.656;12.590;2023-02-15T05:12:11;102849.47;;;4.62;78.46
78299;BME280;67556;55.656;12.590;2023-02-15T05:14:37;102848.91;;;4.56;78.37
78299;BME280;67556;55.656;12.590;2023-02-15T05:17:04;102848.31;;;4.68;78.27
78299;BME280;67556;55.656;12.590;2023-02-15T05:19:30;102828.28;;;4.33;79.35
78299;BME280;67556;55.656;12.590;2023-02-15T05:21:57;102853.81;;;4.42;79.10
78299;BME280;67556;55.656;12.590;2023-02-15T05:24:24;102854.03;;;4.54;78.90
78299;BME280;67556;55.656;12.590;2023-02-15T05:27:11;102847.97;;;4.55;78.89
78299;BME280;67556;55.656;12.590;2023-02-15T05:30:08;102841.41;;;4.60;78.40
78299;BME280;67556;55.656;12.590;2023-02-15T05:32:36;102848.69;;;4.44;79.36
78299;BME280;67556;55.656;12.590;2023-02-15T05:35:04;102841.00;;;4.56;78.80
78299;BME280;67556;55.656;12.590;2023-02-15T05:37:31;102837.44;;;4.55;78.55
78299;BME280;67556;55.656;12.590;2023-02-15T05:39:58;102841.75;;;4.55;78.66
78299;BME280;67556;55.656;12.590;2023-02-15T05:42:27;102843.25;;;4.61;78.49
78299;BME280;67556;55.656;12.590;2023-02-15T05:44:54;102846.09;;;4.54;78.66
78299;BME280;67556;55.656;12.590;2023-02-15T05:47:21;102847.53;;;4.69;78.16
78299;BME280;67556;55.656;12.590;2023-02-15T05:49:48;102830.69;;;4.59;77.97
78299;BME280;67556;55.656;12.590;2023-02-15T05:52:16;102828.34;;;4.62;78.29
78299;BME280;67556;55.656;12.590;2023-02-15T05:54:42;102834.19;;;4.68;77.84
78299;BME280;67556;55.656;12.590;2023-02-15T05:57:09;102827.59;;;4.44;78.81
78299;BME280;67556;55.656;12.590;2023-02-15T05:59:37;102830.06;;;4.61;78.24
78299;BME280;67556;55.656;12.590;2023-02-15T06:02:03;102833.19;;;4.57;78.46
78299;BME280;67556;55.656;12.590;2023-02-15T06:04:31;102833.00;;;4.64;77.88
78299;BME280;67556;55.656;12.590;2023-02-15T06:06:58;102828.06;;;4.59;78.12
78299;BME280;67556;55.656;12.590;2023-02-15T06:09:25;102834.84;;;4.65;77.70
78299;BME280;67556;55.656;12.590;2023-02-15T06:11:51;102833.34;;;4.59;77.93
78299;BME280;67556;55.656;12.590;2023-02-15T06:14:18;102830.28;;;4.54;78.13
78299;BME280;67556;55.656;12.590;2023-02-15T06:16:45;102817.88;;;4.53;78.25
78299;BME280;67556;55.656;12.590;2023-02-15T06:19:12;102819.50;;;4.61;77.97
78299;BME280;67556;55.656;12.590;2023-02-15T06:21:39;102813.91;;;4.77;77.38
78299;BME280;67556;55.656;12.590;2023-02-15T06:24:05;102811.53;;;4.80;77.50
78299;BME280;67556;55.656;12.590;2023-02-15T06:26:32;102814.03;;;4.79;77.30
78299;BME280;67556;55.656;12.590;2023-02-15T06:28:58;102812.13;;;4.67;77.67
78299;BME280;67556;55.656;12.590;2023-02-15T06:31:25;102818.16;;;4.56;78.12
78299;BME280;67556;55.656;12.590;2023-02-15T06:33:54;102812.88;;;4.37;78.50
78299;BME280;67556;55.656;12.590;2023-02-15T06:36:26;102818.03;;;4.36;78.96
78299;BME280;67556;55.656;12.590;2023-02-15T06:38:53;102815.22;;;4.53;78.19
78299;BME280;67556;55.656;12.590;2023-02-15T06:41:19;102810.47;;;4.49;78.13
78299;BME280;67556;55.656;12.590;2023-02-15T06:43:46;102812.88;;;4.56;78.09
78299;BME280;67556;55.656;12.590;2023-02-15T06:46:12;102809.50;;;4.67;77.54
78299;BME280;67556;55.656;12.590;2023-02-15T06:48:39;102813.22;;;4.69;77.60
78299;BME280;67556;55.656;12.590;2023-02-15T06:51:07;102814.84;;;4.78;77.29
78299;BME280;67556;55.656;12.590;2023-02-15T06:53:34;102809.84;;;4.81;77.10
78299;BME280;67556;55.656;12.590;2023-02-15T06:56:01;102813.25;;;4.80;77.17
78299;BME280;67556;55.656;12.590;2023-02-15T06:58:31;102805.50;;;4.62;77.72
78299;BME280;67556;55.656;12.590;2023-02-15T07:00:58;102802.41;;;4.47;78.12
78299;BME280;67556;55.656;12.590;2023-02-15T07:03:25;102808.31;;;4.64;77.77
78299;BME280;67556;55.656;12.590;2023-02-15T07:05:54;102802.34;;;4.56;78.08
78299;BME280;67556;55.656;12.590;2023-02-15T07:08:23;102807.53;;;4.65;77.59
78299;BME280;67556;55.656;12.590;2023-02-15T07:10:50;102800.81;;;4.49;78.10
78299;BME280;67556;55.656;12.590;2023-02-15T07:13:18;102797.47;;;4.61;77.67
78299;BME280;67556;55.656;12.590;2023-02-15T07:15:44;102800.94;;;4.70;77.58
78299;BME280;67556;55.656;12.590;2023-02-15T07:18:11;102796.53;;;4.60;77.89
78299;BME280;67556;55.656;12.590;2023-02-15T07:20:38;102796.69;;;4.62;77.87
78299;BME280;67556;55.656;12.590;2023-02-15T07:23:07;102792.50;;;4.45;78.45
78299;BME280;67556;55.656;12.590;2023-02-15T07:25:35;102800.69;;;4.48;78.43
78299;BME280;67556;55.656;12.590;2023-02-15T07:28:03;102802.47;;;4.58;78.41
78299;BME280;67556;55.656;12.590;2023-02-15T07:30:32;102805.00;;;4.66;77.83
78299;BME280;67556;55.656;12.590;2023-02-15T07:33:01;102797.16;;;4.77;77.49
78299;BME280;67556;55.656;12.590;2023-02-15T07:35:48;102786.94;;;4.71;77.51
78299;BME280;67556;55.656;12.590;2023-02-15T07:38:16;102789.53;;;4.32;78.82
78299;BME280;67556;55.656;12.590;2023-02-15T07:40:45;102790.16;;;4.48;78.61
78299;BME280;67556;55.656;12.590;2023-02-15T07:43:12;102792.28;;;4.52;78.09
78299;BME280;67556;55.656;12.590;2023-02-15T07:45:39;102789.63;;;4.52;78.28
78299;BME280;67556;55.656;12.590;2023-02-15T07:48:06;102793.84;;;4.50;78.02
78299;BME280;67556;55.656;12.590;2023-02-15T07:50:33;102794.91;;;4.52;78.25
78299;BME280;67556;55.656;12.590;2023-02-15T07:53:01;102797.56;;;4.52;78.37
78299;BME280;67556;55.656;12.590;2023-02-15T07:55:29;102792.59;;;4.36;78.76
78299;BME280;67556;55.656;12.590;2023-02-15T07:57:57;102782.78;;;4.54;77.96
78299;BME280;67556;55.656;12.590;2023-02-15T08:00:24;102783.06;;;4.57;78.06
78299;BME280;67556;55.656;12.590;2023-02-15T08:02:53;102781.25;;;4.66;77.99
78299;BME280;67556;55.656;12.590;2023-02-15T08:05:33;102772.88;;;4.81;77.04
78299;BME280;67556;55.656;12.590;2023-02-15T08:08:00;102773.94;;;4.83;76.97
78299;BME280;67556;55.656;12.590;2023-02-15T08:10:27;102767.44;;;4.79;76.87
78299;BME280;67556;55.656;12.590;2023-02-15T08:13:10;102775.69;;;4.63;77.09
78299;BME280;67556;55.656;12.590;2023-02-15T08:15:37;102768.25;;;4.78;77.10
78299;BME280;67556;55.656;12.590;2023-02-15T08:18:04;102767.44;;;4.79;77.21
78299;BME280;67556;55.656;12.590;2023-02-15T08:20:31;102762.16;;;4.69;77.45
78299;BME280;67556;55.656;12.590;2023-02-15T08:22:58;102769.75;;;4.56;77.71
78299;BME280;67556;55.656;12.590;2023-02-15T08:25:25;102761.84;;;4.66;77.23
78299;BME280;67556;55.656;12.590;2023-02-15T08:27:51;102756.38;;;4.54;77.58
78299;BME280;67556;55.656;12.590;2023-02-15T08:30:20;102745.72;;;4.63;77.13
78299;BME280;67556;55.656;12.590;2023-02-15T08:32:47;102749.59;;;4.66;77.16
78299;BME280;67556;55.656;12.590;2023-02-15T08:35:14;102752.53;;;4.80;76.90
78299;BME280;67556;55.656;12.590;2023-02-15T08:37:41;102747.50;;;4.72;76.98
78299;BME280;67556;55.656;12.590;2023-02-15T08:40:09;102739.59;;;4.72;76.90
78299;BME280;67556;55.656;12.590;2023-02-15T08:42:38;102749.88;;;4.80;77.07
78299;BME280;67556;55.656;12.590;2023-02-15T08:45:05;102746.00;;;4.56;77.40
78299;BME280;67556;55.656;12.590;2023-02-15T08:47:33;102741.25;;;4.62;77.87
78299;BME280;67556;55.656;12.590;2023-02-15T08:50:00;102730.19;;;4.66;77.35
78299;BME280;67556;55.656;12.590;2023-02-15T08:52:26;102741.16;;;4.70;77.78
78299;BME280;67556;55.656;12.590;2023-02-15T08:54:54;102734.25;;;4.62;77.45
78299;BME280;67556;55.656;12.590;2023-02-15T08:57:21;102724.97;;;4.47;77.66
78299;BME280;67556;55.656;12.590;2023-02-15T08:59:47;102726.03;;;4.49;77.83
78299;BME280;67556;55.656;12.590;2023-02-15T09:02:16;102725.84;;;4.37;78.37
78299;BME280;67556;55.656;12.590;2023-02-15T09:04:43;102727.88;;;4.50;77.94
78299;BME280;67556;55.656;12.590;2023-02-15T09:07:10;102724.63;;;4.34;78.52
78299;BME280;67556;55.656;12.590;2023-02-15T09:09:37;102718.75;;;4.46;78.57
78299;BME280;67556;55.656;12.590;2023-02-15T09:12:04;102710.84;;;4.46;78.25
78299;BME280;67556;55.656;12.590;2023-02-15T09:14:32;102706.44;;;4.37;78.85
78299;BME280;67556;55.656;12.590;2023-02-15T09:17:01;102716.50;;;4.41;78.52
78299;BME280;67556;55.656;12.590;2023-02-15T09:19:29;102707.19;;;4.25;78.82
78299;BME280;67556;55.656;12.590;2023-02-15T09:21:57;102716.72;;;4.34;79.06
78299;BME280;67556;55.656;12.590;2023-02-15T09:24:24;102711.22;;;4.41;78.65
78299;BME280;67556;55.656;12.590;2023-02-15T09:26:50;102707.66;;;4.40;78.91
78299;BME280;67556;55.656;12.590;2023-02-15T09:29:18;102706.50;;;4.47;78.81
78299;BME280;67556;55.656;12.590;2023-02-15T09:31:46;102706.06;;;4.42;78.77
78299;BME280;67556;55.656;12.590;2023-02-15T09:34:15;102702.50;;;4.42;78.91
78299;BME280;67556;55.656;12.590;2023-02-15T09:36:42;102696.31;;;4.41;78.71
78299;BME280;67556;55.656;12.590;2023-02-15T09:39:12;102692.56;;;4.29;78.19
78299;BME280;67556;55.656;12.590;2023-02-15T09:42:00;102691.72;;;4.20;78.88
78299;BME280;67556;55.656;12.590;2023-02-15T09:44:43;102706.53;;;4.28;78.88
78299;BME280;67556;55.656;12.590;2023-02-15T09:47:28;102693.88;;;4.24;78.90
78299;BME280;67556;55.656;12.590;2023-02-15T09:50:02;102702.88;;;4.36;78.57
78299;BME280;67556;55.656;12.590;2023-02-15T09:52:38;102704.91;;;4.49;78.11
78299;BME280;67556;55.656;12.590;2023-02-15T09:55:23;102704.28;;;4.52;78.43
78299;BME280;67556;55.656;12.590;2023-02-15T09:58:00;102705.81;;;4.39;78.87
78299;BME280;67556;55.656;12.590;2023-02-15T10:00:31;102706.94;;;4.22;79.24
78299;BME280;67556;55.656;12.590;2023-02-15T10:03:11;102705.41;;;4.35;79.19
78299;BME280;67556;55.656;12.590;2023-02-15T10:05:50;102707.47;;;4.29;79.61
78299;BME280;67556;55.656;12.590;2023-02-15T10:08:40;102702.88;;;4.36;79.18
78299;BME280;67556;55.656;12.590;2023-02-15T10:11:15;102703.91;;;4.28;79.40
78299;BME280;67556;55.656;12.590;2023-02-15T10:14:13;102695.97;;;4.47;78.55
78299;BME280;67556;55.656;12.590;2023-02-15T10:16:50;102689.81;;;4.38;78.91
78299;BME280;67556;55.656;12.590;2023-02-15T10:19:23;102685.13;;;4.44;78.47
78299;BME280;67556;55.656;12.590;2023-02-15T10:22:01;102690.34;;;4.34;79.26
78299;BME280;67556;55.656;12.590;2023-02-15T10:24:44;102691.94;;;4.32;79.11
78299;BME280;67556;55.656;12.590;2023-02-15T10:27:21;102677.25;;;4.25;79.56
78299;BME280;67556;55.656;12.590;2023-02-15T10:29:56;102667.59;;;4.15;79.71
78299;BME280;67556;55.656;12.590;2023-02-15T10:32:33;102666.78;;;4.16;79.58
78299;BME280;67556;55.656;12.590;2023-02-15T10:35:12;102673.06;;;4.08;79.61
78299;BME280;67556;55.656;12.590;2023-02-15T10:38:00;102670.84;;;3.84;80.84
78299;BME280;67556;55.656;12.590;2023-02-15T10:40:39;102683.88;;;3.82;80.90
78299;BME280;67556;55.656;12.590;2023-02-15T10:43:21;102682.56;;;3.87;80.59
78299;BME280;67556;55.656;12.590;2023-02-15T10:45:53;102673.41;;;3.73;80.63
78299;BME280;67556;55.656;12.590;2023-02-15T10:48:44;102670.69;;;3.82;81.21
78299;BME280;67556;55.656;12.590;2023-02-15T10:51:25;102674.00;;;3.80;81.13
78299;BME280;67556;55.656;12.590;2023-02-15T10:54:05;102659.44;;;3.74;81.65
78299;BME280;67556;55.656;12.590;2023-02-15T10:56:41;102665.75;;;3.95;81.29
78299;BME280;67556;55.656;12.590;2023-02-15T10:59:25;102661.69;;;3.99;81.35
78299;BME280;67556;55.656;12.590;2023-02-15T11:02:00;102665.66;;;3.75;81.19
78299;BME280;67556;55.656;12.590;2023-02-15T11:04:43;102647.34;;;3.77;81.20
78299;BME280;67556;55.656;12.590;2023-02-15T11:07:16;102646.50;;;3.67;81.28
78299;BME280;67556;55.656;12.590;2023-02-15T11:09:47;102652.03;;;3.70;81.59
78299;BME280;67556;55.656;12.590;2023-02-15T11:12:16;102653.91;;;3.71;81.82
78299;BME280;67556;55.656;12.590;2023-02-15T11:14:49;102647.00;;;3.63;82.07
78299;BME280;67556;55.656;12.590;2023-02-15T11:17:21;102652.25;;;3.82;81.49
78299;BME280;67556;55.656;12.590;2023-02-15T11:19:55;102644.75;;;3.87;81.34
78299;BME280;67556;55.656;12.590;2023-02-15T11:22:25;102646.16;;;4.02;80.02
78299;BME280;67556;55.656;12.590;2023-02-15T11:24:53;102643.28;;;3.80;81.00
78299;BME280;67556;55.656;12.590;2023-02-15T11:27:22;102641.06;;;3.85;80.68
78299;BME280;67556;55.656;12.590;2023-02-15T11:29:58;102633.78;;;3.82;81.01
78299;BME280;67556;55.656;12.590;2023-02-15T11:32:29;102632.16;;;3.93;80.27
78299;BME280;67556;55.656;12.590;2023-02-15T11:35:00;102625.28;;;3.95;80.63
78299;BME280;67556;55.656;12.590;2023-02-15T11:37:33;102636.22;;;3.89;80.92
78299;BME280;67556;55.656;12.590;2023-02-15T11:40:02;102625.59;;;3.98;80.58
78299;BME280;67556;55.656;12.590;2023-02-15T11:42:39;102620.63;;;4.11;80.13
78299;BME280;67556;55.656;12.590;2023-02-15T11:45:21;102612.50;;;4.18;79.55
78299;BME280;67556;55.656;12.590;2023-02-15T11:47:48;102606.03;;;4.25;79.50
78299;BME280;67556;55.656;12.590;2023-02-15T11:50:18;102602.16;;;4.11;79.73
78299;BME280;67556;55.656;12.590;2023-02-15T11:52:47;102596.50;;;4.17;79.63
78299;BME280;67556;55.656;12.590;2023-02-15T11:55:19;102594.78;;;4.07;80.32
78299;BME280;67556;55.656;12.590;2023-02-15T11:57:50;102584.63;;;4.12;79.93
78299;BME280;67556;55.656;12.590;2023-02-15T12:00:28;102593.97;;;4.08;80.19
78299;BME280;67556;55.656;12.590;2023-02-15T12:03:06;102585.75;;;3.95;80.93
78299;BME280;67556;55.656;12.590;2023-02-15T12:05:35;102583.69;;;4.01;80.67
78299;BME280;67556;55.656;12.590;2023-02-15T12:08:13;102583.28;;;3.96;80.38
78299;BME280;67556;55.656;12.590;2023-02-15T12:10:45;102589.72;;;4.00;80.63
78299;BME280;67556;55.656;12.590;2023-02-15T12:13:18;102581.88;;;4.10;81.19
78299;BME280;67556;55.656;12.590;2023-02-15T12:15:48;102585.94;;;4.07;80.64
78299;BME280;67556;55.656;12.590;2023-02-15T12:18:25;102581.19;;;4.03;80.46
78299;BME280;67556;55.656;12.590;2023-02-15T12:20:58;102585.66;;;4.04;80.89
78299;BME280;67556;55.656;12.590;2023-02-15T12:23:28;102589.50;;;4.07;80.35
78299;BME280;67556;55.656;12.590;2023-02-15T12:25:58;102569.06;;;4.05;80.44
78299;BME280;67556;55.656;12.590;2023-02-15T12:28:29;102581.56;;;3.97;81.04
78299;BME280;67556;55.656;12.590;2023-02-15T12:31:00;102569.94;;;3.95;81.02
78299;BME280;67556;55.656;12.590;2023-02-15T12:33:30;102568.91;;;4.03;80.77
78299;BME280;67556;55.656;12.590;2023-02-15T12:36:00;102566.47;;;4.15;80.70
78299;BME280;67556;55.656;12.590;2023-02-15T12:38:29;102561.81;;;4.02;81.18
78299;BME280;67556;55.656;12.590;2023-02-15T12:41:00;102554.31;;;4.17;80.10
78299;BME280;67556;55.656;12.590;2023-02-15T12:43:31;102551.38;;;4.04;80.64
78299;BME280;67556;55.656;12.590;2023-02-15T12:46:22;102548.84;;;3.95;81.34
78299;BME280;67556;55.656;12.590;2023-02-15T12:49:05;102545.41;;;3.86;81.56
78299;BME280;67556;55.656;12.590;2023-02-15T12:51:43;102535.78;;;3.86;81.56
78299;BME280;67556;55.656;12.590;2023-02-15T12:57:17;102533.41;;;3.89;81.84
78299;BME280;67556;55.656;12.590;2023-02-15T12:59:48;102531.81;;;3.91;81.28
78299;BME280;67556;55.656;12.590;2023-02-15T13:02:24;102521.50;;;3.74;82.04
78299;BME280;67556;55.656;12.590;2023-02-15T13:04:51;102527.25;;;3.60;82.38
78299;BME280;67556;55.656;12.590;2023-02-15T13:07:19;102529.19;;;3.62;82.93
78299;BME280;67556;55.656;12.590;2023-02-15T13:09:46;102524.72;;;3.61;82.38
78299;BME280;67556;55.656;12.590;2023-02-15T13:12:20;102519.47;;;3.61;82.60
78299;BME280;67556;55.656;12.590;2023-02-15T13:14:50;102506.97;;;3.59;82.87
78299;BME280;67556;55.656;12.590;2023-02-15T13:17:21;102516.03;;;3.62;82.77